createdAt,value
2018-11-06T10:17:42.321Z,67.20
2018-11-06T10:20:21.252Z,67.20
2018-11-06T10:23:00.418Z,67.00
2018-11-06T10:25:39.149Z,66.60
2018-11-06T10:28:18.596Z,65.80
2018-11-06T10:30:59.484Z,66.40
2018-11-06T10:33:39.232Z,66.60
2018-11-06T10:36:18.538Z,66.90
2018-11-06T10:39:01.169Z,67.20
2018-11-06T10:41:40.323Z,67.30
2018-11-06T10:44:19.620Z,67.50
2018-11-06T10:46:58.066Z,67.80
2018-11-06T10:49:36.665Z,68.00
2018-11-06T10:52:15.154Z,68.10
2018-11-06T10:54:54.613Z,68.40
2018-11-06T10:57:34.191Z,68.80
2018-11-06T11:00:18.402Z,69.00
2018-11-06T11:03:00.819Z,69.30
2018-11-06T11:05:40.099Z,69.60
2018-11-06T11:08:19.552Z,69.80
2018-11-06T11:10:58.471Z,70.10
2018-11-06T11:13:37.954Z,70.70
2018-11-06T11:16:17.087Z,71.00
2018-11-06T11:18:55.550Z,71.30
2018-11-06T11:21:38.200Z,71.70
2018-11-06T11:24:16.862Z,72.00
2018-11-06T11:26:55.721Z,72.30
2018-11-06T11:29:34.672Z,72.70
2018-11-06T11:32:13.522Z,73.10
2018-11-06T11:34:52.266Z,73.50
2018-11-06T11:37:32.088Z,73.70
2018-11-06T11:40:11.982Z,73.90
2018-11-06T11:42:51.096Z,74.20
2018-11-06T11:45:29.796Z,74.50
2018-11-06T11:48:08.872Z,75.10
2018-11-06T11:50:47.228Z,75.30
2018-11-06T11:53:26.246Z,75.70
2018-11-06T11:56:05.912Z,76.10
2018-11-06T11:58:45.635Z,76.40
2018-11-06T12:01:25.405Z,76.60
2018-11-06T12:04:04.296Z,76.80
2018-11-06T12:06:43.133Z,77.00
2018-11-06T12:09:21.987Z,77.20
2018-11-06T12:12:01.593Z,77.30
2018-11-06T12:14:40.612Z,77.50
2018-11-06T12:17:20.193Z,77.60
2018-11-06T12:19:58.952Z,77.60
2018-11-06T12:22:38.461Z,77.70
2018-11-06T12:25:18.094Z,77.80
2018-11-06T12:27:56.730Z,77.80
2018-11-06T12:30:35.812Z,77.80
2018-11-06T12:33:14.494Z,77.90
2018-11-06T12:35:53.450Z,77.80
2018-11-06T12:38:32.189Z,77.80
2018-11-06T12:41:11.160Z,77.80
2018-11-06T12:43:50.169Z,77.80
2018-11-06T12:46:29.235Z,77.90
2018-11-06T12:49:07.828Z,77.10
2018-11-06T12:51:46.549Z,77.80
2018-11-06T12:54:24.911Z,78.00
2018-11-06T12:57:04.597Z,78.00
2018-11-06T12:59:43.217Z,77.90
2018-11-06T13:02:22.252Z,77.90
2018-11-06T13:05:00.927Z,77.90
2018-11-06T13:07:40.987Z,78.00
2018-11-06T13:10:19.634Z,78.00
2018-11-06T13:12:58.436Z,78.10
2018-11-06T13:15:38.096Z,78.00
2018-11-06T13:18:16.859Z,77.90
2018-11-06T13:20:55.501Z,77.90
2018-11-06T13:23:34.353Z,77.90
2018-11-06T13:26:12.966Z,77.80
2018-11-06T13:28:53.613Z,77.80
2018-11-06T13:31:32.351Z,77.70
2018-11-06T13:34:11.257Z,77.80
2018-11-06T13:36:49.821Z,77.80
2018-11-06T13:39:28.821Z,77.90
2018-11-06T13:42:07.947Z,77.90
2018-11-06T13:44:48.086Z,78.00
2018-11-06T13:47:26.523Z,78.10
2018-11-06T13:50:05.584Z,78.10
2018-11-06T13:52:44.073Z,78.20
2018-11-06T13:55:22.915Z,78.30
2018-11-06T13:58:01.699Z,78.30
2018-11-06T14:00:40.748Z,78.40
2018-11-06T14:03:19.390Z,78.50
2018-11-06T14:05:58.258Z,78.70
2018-11-06T14:08:37.024Z,78.60
2018-11-06T14:11:15.578Z,78.70
2018-11-06T14:13:53.907Z,78.80
2018-11-06T14:16:33.058Z,78.80
2018-11-06T14:19:12.235Z,78.90
2018-11-06T14:21:51.135Z,79.00
2018-11-06T14:24:29.808Z,79.10
2018-11-06T14:27:08.845Z,79.10
2018-11-06T14:29:47.944Z,79.20
2018-11-06T14:32:28.100Z,79.40
2018-11-06T14:35:06.901Z,79.50
2018-11-06T14:37:47.690Z,79.60
2018-11-06T14:40:26.724Z,79.80
2018-11-06T14:43:05.779Z,79.90
2018-11-06T14:45:44.298Z,80.00
2018-11-06T14:48:23.181Z,80.10
2018-11-06T14:51:01.868Z,80.20
2018-11-06T14:53:40.697Z,80.40
2018-11-06T14:56:19.227Z,80.50
2018-11-06T14:58:57.991Z,80.60
2018-11-06T15:01:36.770Z,81.10
2018-11-06T15:05:44.219Z,81.30
2018-11-06T15:08:23.041Z,81.40
2018-11-06T15:11:02.088Z,81.50
2018-11-06T15:13:40.762Z,81.40
2018-11-06T15:16:19.397Z,81.50
2018-11-06T15:18:57.947Z,81.50
2018-11-06T15:21:37.090Z,81.60
2018-11-06T15:24:16.697Z,81.20
2018-11-06T15:26:55.703Z,81.20
2018-11-06T15:29:34.241Z,81.10
2018-11-06T15:32:13.192Z,81.10
2018-11-06T15:34:52.027Z,81.00
2018-11-06T15:37:35.246Z,81.00
2018-11-06T15:40:16.147Z,81.10
2018-11-06T15:42:58.484Z,81.00
2018-11-06T15:45:37.985Z,80.80
2018-11-06T15:48:20.336Z,80.50
2018-11-06T15:50:59.122Z,80.60
2018-11-06T15:53:38.304Z,80.60
2018-11-06T15:56:16.946Z,80.70
2018-11-06T15:58:56.453Z,80.70
2018-11-06T16:01:35.798Z,80.70
2018-11-06T16:04:14.700Z,80.80
2018-11-06T16:06:53.190Z,80.90
2018-11-06T16:09:32.999Z,81.10
2018-11-06T16:12:14.987Z,81.20
2018-11-06T16:14:53.576Z,81.30
2018-11-06T16:17:32.110Z,81.30
2018-11-06T16:20:12.366Z,81.40
2018-11-06T16:22:51.067Z,81.30
2018-11-06T16:25:30.731Z,81.20
2018-11-06T16:28:09.361Z,82.00
2018-11-06T16:30:48.156Z,81.10
2018-11-06T16:33:27.106Z,81.00
2018-11-06T16:36:08.384Z,81.10
2018-11-06T16:38:49.563Z,81.20
2018-11-06T16:41:29.665Z,81.30
2018-11-06T16:44:11.967Z,81.50
2018-11-06T16:46:50.804Z,81.50
2018-11-06T16:49:29.269Z,81.20
2018-11-06T16:52:07.968Z,81.00
2018-11-06T16:54:46.574Z,81.00
2018-11-06T16:57:25.470Z,80.80
2018-11-06T17:00:04.134Z,80.70
2018-11-06T17:02:43.597Z,80.60
2018-11-06T17:05:22.154Z,80.50
2018-11-06T17:08:00.784Z,80.40
2018-11-06T17:17:35.290Z,80.90
2018-11-06T17:20:14.848Z,80.60
2018-11-06T17:25:42.700Z,80.10
2018-11-06T17:28:23.341Z,80.00
2018-11-06T17:31:04.087Z,79.90
2018-11-06T17:37:33.078Z,79.60
2018-11-06T17:40:14.132Z,79.40
2018-11-06T17:42:54.849Z,79.40
2018-11-06T17:45:35.851Z,79.20
2018-11-06T17:48:15.222Z,79.10
2018-11-06T17:50:55.933Z,79.00
2018-11-06T17:56:23.846Z,78.70
2018-11-06T17:59:08.247Z,78.50
2018-11-06T18:01:48.470Z,78.60
2018-11-06T18:04:29.644Z,78.50
2018-11-06T18:07:14.321Z,78.50
2018-11-06T18:09:55.284Z,78.30
2018-11-06T18:12:39.026Z,78.30
2018-11-06T18:15:22.562Z,78.20
2018-11-06T18:18:01.465Z,78.20
2018-11-06T18:20:43.471Z,78.20
2018-11-06T18:23:22.703Z,78.20
2018-11-06T18:26:01.471Z,78.10
2018-11-06T18:28:43.796Z,78.00
2018-11-06T18:31:28.000Z,77.90
2018-11-06T18:34:08.351Z,78.00
2018-11-06T18:36:52.620Z,77.90
2018-11-06T18:39:33.987Z,77.90
2018-11-06T18:42:14.751Z,78.00
2018-11-06T18:44:55.432Z,78.00
2018-11-06T18:47:35.129Z,78.00
2018-11-06T18:50:15.907Z,78.10
2018-11-06T18:52:54.706Z,78.20
2018-11-06T18:55:35.092Z,78.20
2018-11-06T18:58:15.377Z,78.10
2018-11-06T19:00:57.312Z,78.00
2018-11-06T19:03:37.656Z,78.10
2018-11-06T19:06:18.363Z,78.00
2018-11-06T19:08:57.787Z,78.10
2018-11-06T19:11:43.836Z,78.00
2018-11-06T19:14:23.584Z,77.90
2018-11-06T19:17:03.242Z,77.90
2018-11-06T19:19:44.451Z,77.90
2018-11-06T19:22:28.288Z,78.10
2018-11-06T19:25:08.026Z,78.60
2018-11-06T19:27:48.054Z,77.70
2018-11-06T19:30:30.337Z,77.70
2018-11-06T19:33:11.025Z,77.60
2018-11-06T19:35:50.540Z,77.60
2018-11-06T19:38:29.352Z,77.40
2018-11-06T19:41:08.433Z,77.40
2018-11-06T19:43:47.176Z,77.20
2018-11-06T19:46:25.867Z,77.10
2018-11-06T19:49:05.586Z,77.70
2018-11-06T19:51:44.382Z,77.70
2018-11-06T19:54:25.062Z,76.90
2018-11-06T19:57:04.184Z,76.80
2018-11-06T19:59:43.124Z,76.80
2018-11-06T20:02:22.163Z,76.80
2018-11-06T20:05:01.200Z,76.40
2018-11-06T20:07:39.928Z,76.00
2018-11-06T20:10:20.139Z,76.00
2018-11-06T20:12:58.705Z,76.30
2018-11-06T20:15:37.446Z,76.30
2018-11-06T20:18:16.024Z,76.60
2018-11-06T20:20:54.794Z,76.70
2018-11-06T20:23:33.499Z,76.70
2018-11-06T20:26:12.559Z,76.70
2018-11-06T20:28:51.123Z,76.50
2018-11-06T20:31:29.986Z,76.60
2018-11-06T20:34:08.607Z,76.60
2018-11-06T20:36:47.479Z,76.60
2018-11-06T20:39:26.014Z,76.70
2018-11-06T20:42:05.030Z,76.50
2018-11-06T20:44:43.788Z,76.40
2018-11-06T20:47:22.799Z,76.40
2018-11-06T20:50:01.592Z,76.50
2018-11-06T20:52:40.659Z,76.90
2018-11-06T20:55:19.861Z,77.20
2018-11-06T20:58:00.790Z,77.30
2018-11-06T21:00:39.241Z,77.30
2018-11-06T21:03:18.281Z,77.40
2018-11-06T21:05:56.954Z,77.50
2018-11-06T21:08:35.611Z,77.00
2018-11-06T21:11:14.150Z,77.70
2018-11-06T21:13:53.119Z,77.70
2018-11-06T21:16:31.718Z,77.60
2018-11-06T21:19:10.643Z,77.70
2018-11-06T21:21:49.450Z,77.70
2018-11-06T21:24:28.223Z,77.80
2018-11-06T21:27:06.940Z,78.10
2018-11-06T21:29:45.719Z,78.30
2018-11-06T21:32:24.248Z,78.40
2018-11-06T21:35:03.154Z,78.40
2018-11-06T21:37:41.849Z,78.60
2018-11-06T21:40:22.198Z,78.60
2018-11-06T21:43:00.748Z,78.70
2018-11-06T21:45:39.701Z,78.70
2018-11-06T21:48:18.387Z,78.70
2018-11-06T21:50:57.573Z,78.60
2018-11-06T21:53:36.090Z,78.60
2018-11-06T21:56:14.967Z,78.50
2018-11-06T21:58:53.502Z,78.50
2018-11-06T22:01:32.605Z,78.20
2018-11-06T22:04:11.268Z,78.20
2018-11-06T22:06:50.119Z,78.20
2018-11-06T22:09:28.697Z,78.80
2018-11-06T22:12:07.706Z,77.90
2018-11-06T22:14:46.522Z,77.90
2018-11-06T22:17:25.568Z,77.90
2018-11-06T22:20:04.349Z,78.00
2018-11-06T22:22:43.583Z,78.00
2018-11-06T22:25:22.134Z,78.20
2018-11-06T22:28:01.087Z,78.30
2018-11-06T22:30:39.889Z,78.30
2018-11-06T22:33:19.025Z,78.40
2018-11-06T22:35:57.569Z,78.30
2018-11-06T22:38:36.447Z,78.30
2018-11-06T22:41:15.009Z,78.30
2018-11-06T22:43:53.969Z,78.30
2018-11-06T22:46:32.548Z,78.40
2018-11-06T22:49:11.409Z,78.40
2018-11-06T22:51:49.877Z,78.50
2018-11-06T22:54:29.554Z,78.50
2018-11-06T22:57:08.026Z,78.50
2018-11-06T22:59:46.744Z,78.50
2018-11-06T23:02:25.396Z,78.50
2018-11-06T23:05:07.023Z,78.50
2018-11-06T23:07:49.901Z,78.70
2018-11-06T23:10:28.578Z,78.60
2018-11-06T23:13:07.114Z,78.70
2018-11-06T23:15:45.871Z,78.60
2018-11-06T23:18:24.465Z,78.40
2018-11-06T23:21:03.698Z,78.50
2018-11-06T23:23:42.424Z,78.50
2018-11-06T23:26:21.244Z,78.40
2018-11-06T23:28:59.858Z,78.50
2018-11-06T23:31:38.948Z,78.50
2018-11-06T23:34:17.608Z,78.40
2018-11-06T23:36:56.489Z,78.50
2018-11-06T23:39:35.251Z,78.50
2018-11-06T23:42:14.261Z,78.60
2018-11-06T23:44:52.813Z,78.60
2018-11-06T23:47:31.962Z,78.60
2018-11-06T23:50:11.187Z,78.70
2018-11-06T23:52:50.142Z,78.60
2018-11-06T23:55:28.744Z,78.40
2018-11-06T23:58:07.591Z,78.40
